Terminal Aerodrome Forecast
Issued by NWS Shreveport, LA

Current Version | Previous Version | Text Only | Print | Product List | Glossary On
Versions: 1 2 3 4 5 6 7 8 9 10 11 12 13 14 15 16 17
000
FTUS44 KSHV 300952 AAA
TAFGGG
TAF AMD
KGGG 300952Z 3010/0106 22007KT P6SM FEW045 BKN150 BKN250
     FM301300 24008KT P6SM SCT010 SCT045 BKN150
      TEMPO 3013/3016 BKN010
     FM301600 24010KT P6SM SCT023 SCT150 BKN250
     FM301800 23010KT P6SM SCT040 BKN250
     FM010100 20007KT P6SM FEW050 BKN250=

USA.gov is the U.S. government's official web portal to all federal, state and local government web resources and services.